Lyons, CO (80540)

4:45 PM MDT on August 23, 2016 (GMT -0600)
McConnell CT in Lyons Valley Park | | Change Station

Elev 5318 ft 40.22 °N, 105.26 °W | Updated 1 second ago

Overcast
Overcast
78.6 °F
Feels Like 79 °F
N
0.0
Wind Variable Wind from North
Gusts 0.0 mph

Today
High -- | Low -- °F
--% Chance of Precip.
Yesterday
High -- | Low -- °F
Precip. -- in
Pressure 30.08 in
Visibility 10.0 miles
Clouds Overcast 11000 ft
Heat Index 79 °F
Dew Point 50 °F
Humidity 36%
Rainfall 0.00 in
Snow Depth Not available.
6:20 AM 7:45 PM
Waning Gibbous, 64% visible
METAR KLMO 232234Z AUTO 21012KT 10SM OVC110 27/04 A3008 RMK AO2 T02720043
Pressure 30.08 in
Visibility 10.0 miles
Clouds Overcast 11000 ft
Heat Index 79 °F
Dew Point 50 °F
Humidity 36%
Rainfall 0.00 in
Snow Depth Not available.
6:20 AM 7:45 PM
Waning Gibbous, 64% visible
METAR KLMO 232234Z AUTO 21012KT 10SM OVC110 27/04 A3008 RMK AO2 T02720043

10-Day Weather Forecast

Almanac

Astronomy

Aug. 23, 2016 Rise Set
Actual Time
Civil Twilight
Nautical Twilight
Astronomical Twilight
Moon
Length of Visible Light
Length of Day
Tomorrow will be .
, % of the Moon is Illuminated

Today's Extremes

State Highs State Lows

Community

WunderPhotos

Upload Photos

1,934,488 photos uploaded!

WunderBlog® & News

Nearby

Air Quality

  Air Quality AQ Index Pollutant
Not available.

Snow Depth

Station Depth Elevation

Earthquake Activity

City Distance Mag. Time & Date
Minimum magnitude displayed is 2.5.

Coastal Water Temperatures

Place Temperature

Stations

Nearby Weather Stations

Station Location Temp. Windchill Dew Point Humidity Wind Precip. Elev Updated Type
                   

Watches & Warnings

There are currently no watches in effect.